createdAt,value
2022-08-11T00:02:35.116Z,18.54
2022-08-11T00:05:08.652Z,18.33
2022-08-11T00:07:37.445Z,18.50
2022-08-11T00:10:11.345Z,19.62
2022-08-11T00:12:42.333Z,20.73
2022-08-11T00:15:14.081Z,21.16
2022-08-11T00:17:45.243Z,20.54
2022-08-11T00:20:17.390Z,19.81
2022-08-11T00:22:48.770Z,19.27
2022-08-11T00:25:20.668Z,18.89
2022-08-11T00:27:51.009Z,19.09
2022-08-11T00:30:21.719Z,20.10
2022-08-11T00:32:56.697Z,20.48
2022-08-11T00:35:51.210Z,19.74
2022-08-11T00:38:24.590Z,18.87
2022-08-11T00:40:58.759Z,18.64
2022-08-11T00:43:38.091Z,19.63
2022-08-11T00:46:14.247Z,20.57
2022-08-11T00:48:50.623Z,20.66
2022-08-11T00:51:27.334Z,19.53
2022-08-11T00:54:28.063Z,18.48
2022-08-11T00:57:36.182Z,18.24
2022-08-11T01:00:14.902Z,19.33
2022-08-11T01:03:04.539Z,20.13
2022-08-11T01:05:54.547Z,20.68
2022-08-11T01:08:44.603Z,20.74
2022-08-11T01:11:27.317Z,19.79
2022-08-11T01:14:09.009Z,18.92
2022-08-11T01:16:53.690Z,18.60
2022-08-11T01:20:44.995Z,19.55
2022-08-11T01:22:53.401Z,20.50
2022-08-11T01:25:57.531Z,20.03
2022-08-11T01:28:52.517Z,18.91
2022-08-11T01:31:36.597Z,19.13
2022-08-11T01:34:23.041Z,19.94
2022-08-11T01:37:03.778Z,20.36
2022-08-11T01:39:50.587Z,20.39
2022-08-11T01:42:55.007Z,19.27
2022-08-11T01:45:23.995Z,18.26
2022-08-11T01:48:01.131Z,18.66
2022-08-11T01:50:38.751Z,19.61
2022-08-11T01:53:17.454Z,20.11
2022-08-11T01:55:57.452Z,20.45
2022-08-11T01:58:39.541Z,20.79
2022-08-11T02:01:24.375Z,19.46
2022-08-11T02:03:59.138Z,18.80
2022-08-11T02:06:50.606Z,19.32
2022-08-11T02:09:26.159Z,20.04
2022-08-11T02:11:59.652Z,20.48
2022-08-11T02:14:39.030Z,20.26
2022-08-11T02:17:14.167Z,19.12
2022-08-11T02:20:17.930Z,19.29
2022-08-11T02:23:10.194Z,20.32
2022-08-11T02:25:45.084Z,20.10
2022-08-11T02:28:24.238Z,18.99
2022-08-11T02:32:05.103Z,19.45
2022-08-11T02:34:13.013Z,20.37
2022-08-11T02:36:46.200Z,20.18
2022-08-11T02:39:19.636Z,18.79
2022-08-11T02:42:06.602Z,18.88
2022-08-11T02:45:07.144Z,19.88
2022-08-11T02:48:07.875Z,19.93
2022-08-11T02:50:39.333Z,20.21
2022-08-11T02:53:12.864Z,20.53
2022-08-11T02:55:44.422Z,20.28
2022-08-11T02:58:26.886Z,18.99
2022-08-11T03:01:02.299Z,19.20
2022-08-11T03:03:37.872Z,19.71
2022-08-11T03:06:10.727Z,20.29
2022-08-11T03:08:52.760Z,20.20
2022-08-11T03:12:03.013Z,20.19
2022-08-11T03:14:55.555Z,20.29
2022-08-11T03:17:30.016Z,20.47
2022-08-11T03:20:07.414Z,20.39
2022-08-11T03:22:41.888Z,19.15
2022-08-11T03:25:16.726Z,18.51
2022-08-11T03:27:51.453Z,19.23
2022-08-11T03:30:27.133Z,19.84
2022-08-11T03:33:24.043Z,20.04
2022-08-11T03:36:05.791Z,20.07
2022-08-11T03:38:45.126Z,20.49
2022-08-11T03:42:02.304Z,19.95
2022-08-11T03:44:47.365Z,18.58
2022-08-11T03:47:25.522Z,19.21
2022-08-11T03:50:02.033Z,19.91
2022-08-11T03:52:39.783Z,20.17
2022-08-11T03:55:15.334Z,20.23
2022-08-11T03:58:03.928Z,20.35
2022-08-11T04:00:54.324Z,20.47
2022-08-11T04:03:53.661Z,19.37
2022-08-11T04:06:49.852Z,18.60
2022-08-11T04:09:45.005Z,19.48
2022-08-11T04:12:35.809Z,20.37
2022-08-11T04:15:32.714Z,19.98
2022-08-11T04:18:16.509Z,18.88
2022-08-11T04:20:55.231Z,19.45
2022-08-11T04:24:36.213Z,19.90
2022-08-11T04:26:34.491Z,20.20
2022-08-11T04:29:12.423Z,20.49
2022-08-11T04:31:52.127Z,20.35
2022-08-11T04:34:37.113Z,19.14
2022-08-11T04:37:35.073Z,19.17
2022-08-11T04:40:19.562Z,20.03
2022-08-11T04:43:21.945Z,20.36
2022-08-11T04:46:13.762Z,20.71
2022-08-11T04:49:33.129Z,20.68
2022-08-11T04:52:26.192Z,19.13
2022-08-11T04:55:45.404Z,19.22
2022-08-11T04:58:46.307Z,20.26
2022-08-11T05:01:43.077Z,20.71
2022-08-11T05:04:51.995Z,20.91
2022-08-11T05:07:46.367Z,19.40
2022-08-11T05:10:15.150Z,19.59
2022-08-11T05:12:47.855Z,20.19
2022-08-11T05:15:43.022Z,20.60
2022-08-11T05:18:35.580Z,20.88
2022-08-11T05:21:44.742Z,19.98
2022-08-11T05:24:39.281Z,19.52
2022-08-11T05:27:28.997Z,20.67
2022-08-11T05:30:20.344Z,20.72
2022-08-11T05:33:16.255Z,19.62
2022-08-11T05:36:02.048Z,19.70
2022-08-11T05:38:52.918Z,20.78
2022-08-11T05:41:43.651Z,20.78
2022-08-11T05:44:36.981Z,19.95
2022-08-11T05:47:26.452Z,19.64
2022-08-11T05:50:15.035Z,20.84
2022-08-11T05:53:08.994Z,21.14
2022-08-11T05:56:02.167Z,20.35
2022-08-11T05:58:42.292Z,19.79
2022-08-11T06:01:14.468Z,19.74
2022-08-11T06:04:04.583Z,20.85
2022-08-11T06:06:36.169Z,21.93
2022-08-11T06:09:07.245Z,21.41
2022-08-11T06:11:43.237Z,20.76
2022-08-11T06:14:16.905Z,20.36
2022-08-11T06:16:49.012Z,20.14
2022-08-11T06:19:23.302Z,20.02
2022-08-11T06:21:54.527Z,19.97
2022-08-11T06:24:25.295Z,19.98
2022-08-11T06:27:13.437Z,20.38
2022-08-11T06:29:54.857Z,21.62
2022-08-11T06:32:27.374Z,21.65
2022-08-11T06:35:19.108Z,21.36
2022-08-11T06:37:58.965Z,21.14
2022-08-11T06:40:34.824Z,21.02
2022-08-11T06:43:10.480Z,20.98
2022-08-11T06:45:49.196Z,20.97
2022-08-11T06:48:22.236Z,20.98
2022-08-11T06:51:12.028Z,20.98
2022-08-11T06:53:57.589Z,21.00
2022-08-11T06:57:25.960Z,21.05
2022-08-11T07:00:04.399Z,21.14
2022-08-11T07:02:38.510Z,21.23
2022-08-11T07:05:11.729Z,21.30
2022-08-11T07:08:34.902Z,21.35
2022-08-11T07:11:39.938Z,21.46
2022-08-11T07:14:31.189Z,21.56
2022-08-11T07:17:04.085Z,21.67
2022-08-11T07:19:52.149Z,21.74
2022-08-11T07:22:46.935Z,21.82
2022-08-11T07:25:35.499Z,21.89
2022-08-11T07:28:20.873Z,21.99
2022-08-11T07:30:54.127Z,22.09
2022-08-11T07:34:07.587Z,22.18
2022-08-11T07:36:14.774Z,22.26
2022-08-11T07:38:47.542Z,22.32
2022-08-11T07:41:19.071Z,22.38
2022-08-11T07:43:50.658Z,22.45
2022-08-11T07:46:39.840Z,22.53
2022-08-11T07:49:28.427Z,22.55
2022-08-11T07:52:17.750Z,22.59
2022-08-11T07:54:51.261Z,22.66
2022-08-11T07:58:13.772Z,22.76
2022-08-11T08:00:51.708Z,22.88
2022-08-11T08:03:54.351Z,22.97
2022-08-11T08:06:43.369Z,23.08
2022-08-11T08:09:32.915Z,23.19
2022-08-11T08:12:21.967Z,23.26
2022-08-11T08:15:12.162Z,23.33
2022-08-11T08:18:20.556Z,23.40
2022-08-11T08:20:42.196Z,23.50
2022-08-11T08:23:12.825Z,23.62
2022-08-11T08:25:44.950Z,23.73
2022-08-11T08:28:16.809Z,23.87
2022-08-11T08:30:51.289Z,23.99
2022-08-11T08:33:23.279Z,24.16
2022-08-11T08:36:12.124Z,24.31
2022-08-11T08:38:44.543Z,24.45
2022-08-11T08:41:16.778Z,24.58
2022-08-11T08:43:50.335Z,24.73
2022-08-11T08:46:23.523Z,24.86
2022-08-11T08:48:54.260Z,24.90
2022-08-11T08:52:02.459Z,24.83
2022-08-11T08:54:30.442Z,24.70
2022-08-11T08:57:05.341Z,24.57
2022-08-11T08:59:48.756Z,24.38
2022-08-11T09:02:44.001Z,24.26
2022-08-11T09:05:12.638Z,24.32
2022-08-11T09:07:48.256Z,24.39
2022-08-11T09:10:20.313Z,24.45
2022-08-11T09:12:51.867Z,24.50
2022-08-11T09:15:22.453Z,24.57
2022-08-11T09:18:04.211Z,24.63
2022-08-11T09:20:36.033Z,24.66
2022-08-11T09:26:38.975Z,24.66
2022-08-11T09:29:10.961Z,24.61
2022-08-11T09:31:41.733Z,24.59
2022-08-11T09:34:15.134Z,24.53
2022-08-11T09:37:03.579Z,24.40
2022-08-11T09:39:55.338Z,24.16
2022-08-11T09:42:47.508Z,24.03
2022-08-11T09:45:19.377Z,24.00
2022-08-11T09:47:49.771Z,24.01
2022-08-11T09:50:21.099Z,23.99
2022-08-11T09:53:16.875Z,23.95
2022-08-11T09:55:42.413Z,23.98
2022-08-11T09:58:42.094Z,24.01
2022-08-11T10:01:08.490Z,24.05
2022-08-11T10:03:41.742Z,24.08
2022-08-11T10:06:33.076Z,24.01
2022-08-11T10:09:07.372Z,23.91
2022-08-11T10:11:41.382Z,23.91
2022-08-11T10:14:32.976Z,23.91
2022-08-11T10:17:08.356Z,23.98
2022-08-11T10:19:39.088Z,24.00
2022-08-11T10:22:27.921Z,24.01
2022-08-11T10:25:19.928Z,24.05
2022-08-11T10:28:29.086Z,24.14
2022-08-11T10:31:11.230Z,24.40
2022-08-11T10:34:04.208Z,24.75
2022-08-11T10:36:35.935Z,25.01
2022-08-11T10:39:07.361Z,25.18
2022-08-11T10:42:06.382Z,25.28
2022-08-11T10:44:41.363Z,25.27
2022-08-11T10:47:30.291Z,25.15
2022-08-11T10:50:19.132Z,25.05
2022-08-11T10:53:07.793Z,25.02
2022-08-11T10:55:58.379Z,25.04
2022-08-11T10:58:49.037Z,25.07
2022-08-11T11:01:23.993Z,25.00
2022-08-11T11:03:58.235Z,24.83
2022-08-11T11:06:30.409Z,24.69
2022-08-11T11:09:04.457Z,24.44
2022-08-11T11:11:55.426Z,24.09
2022-08-11T11:14:49.777Z,23.72
2022-08-11T11:17:43.209Z,23.26
2022-08-11T11:20:34.586Z,22.91
2022-08-11T11:23:08.224Z,22.61
2022-08-11T11:26:06.792Z,22.42
2022-08-11T11:28:47.422Z,22.27
2022-08-11T11:31:24.956Z,22.16
2022-08-11T11:34:11.837Z,22.16
2022-08-11T11:36:46.861Z,22.25
2022-08-11T11:39:20.577Z,22.37
2022-08-11T11:41:52.405Z,22.50
2022-08-11T11:44:24.075Z,22.62
2022-08-11T11:46:56.785Z,22.81
2022-08-11T11:49:29.347Z,23.06
2022-08-11T11:52:00.950Z,23.35
2022-08-11T11:54:34.202Z,23.59
2022-08-11T11:57:30.537Z,23.78
2022-08-11T12:00:19.313Z,23.99
2022-08-11T12:02:50.299Z,24.16
2022-08-11T12:05:22.142Z,24.32
2022-08-11T12:08:13.102Z,24.46
2022-08-11T12:10:44.879Z,24.69
2022-08-11T12:13:33.252Z,24.97
2022-08-11T12:16:33.059Z,25.21
2022-08-11T12:19:00.234Z,25.22
2022-08-11T12:21:31.583Z,25.08
2022-08-11T12:24:20.872Z,24.91
2022-08-11T12:27:16.201Z,24.75
2022-08-11T12:29:54.414Z,24.62
2022-08-11T12:32:29.195Z,24.59
2022-08-11T12:34:59.724Z,24.54
2022-08-11T12:37:32.412Z,24.38
2022-08-11T12:40:43.589Z,24.15
2022-08-11T12:43:38.388Z,23.91
2022-08-11T12:46:11.572Z,23.66
2022-08-11T12:49:03.753Z,23.47
2022-08-11T12:52:01.491Z,23.20
2022-08-11T12:54:58.041Z,22.76
2022-08-11T12:57:48.174Z,22.31
2022-08-11T13:00:37.170Z,21.77
2022-08-11T13:03:26.035Z,21.23
2022-08-11T13:05:58.296Z,20.86
2022-08-11T13:08:30.045Z,20.66
2022-08-11T13:11:19.591Z,20.45
2022-08-11T13:13:54.256Z,20.71
2022-08-11T13:16:29.133Z,21.58
2022-08-11T13:19:01.503Z,21.50
2022-08-11T13:21:32.552Z,20.97
2022-08-11T13:24:03.830Z,20.71
2022-08-11T13:26:43.154Z,21.55
2022-08-11T13:29:24.241Z,22.20
2022-08-11T13:31:56.576Z,21.74
2022-08-11T13:34:28.171Z,21.11
2022-08-11T13:37:01.644Z,21.23
2022-08-11T13:39:30.541Z,22.13
2022-08-11T13:42:02.877Z,22.65
2022-08-11T13:44:37.114Z,22.65
2022-08-11T13:47:09.317Z,21.72
2022-08-11T13:49:41.271Z,21.17
2022-08-11T13:52:14.279Z,21.68
2022-08-11T13:54:48.191Z,22.29
2022-08-11T13:58:08.383Z,22.52
2022-08-11T14:00:13.223Z,21.74
2022-08-11T14:02:57.453Z,20.93
2022-08-11T14:05:29.308Z,20.75
2022-08-11T14:08:02.417Z,21.70
2022-08-11T14:10:37.315Z,22.58
2022-08-11T14:13:42.384Z,23.27
2022-08-11T14:16:18.919Z,23.94
2022-08-11T14:18:51.748Z,23.85
2022-08-11T14:21:42.915Z,23.23
2022-08-11T14:24:14.007Z,22.68
2022-08-11T14:26:45.526Z,22.97
2022-08-11T14:29:17.806Z,23.92
2022-08-11T14:31:49.148Z,23.80
2022-08-11T14:34:21.458Z,23.60
2022-08-11T14:36:53.568Z,23.87
2022-08-11T14:39:27.102Z,24.46
2022-08-11T14:42:15.709Z,25.08
2022-08-11T14:45:05.509Z,25.54
2022-08-11T14:47:37.240Z,25.86
2022-08-11T14:50:10.879Z,26.05
2022-08-11T14:52:52.768Z,26.42
2022-08-11T14:55:42.453Z,26.89
2022-08-11T14:58:14.338Z,27.24
2022-08-11T15:00:45.208Z,27.11
2022-08-11T15:03:16.403Z,26.68
2022-08-11T15:05:57.364Z,26.09
2022-08-11T15:08:50.180Z,25.43
2022-08-11T15:11:40.253Z,24.80
2022-08-11T15:14:11.241Z,24.25
2022-08-11T15:17:00.515Z,23.65
2022-08-11T15:19:41.012Z,22.89
2022-08-11T15:22:30.514Z,22.26
2022-08-11T15:25:01.084Z,21.89
2022-08-11T15:27:51.877Z,22.76
2022-08-11T15:30:41.092Z,24.11
2022-08-11T15:33:30.483Z,24.63
2022-08-11T15:36:20.678Z,23.96
2022-08-11T15:38:55.793Z,23.35
2022-08-11T15:41:58.598Z,22.94
2022-08-11T15:45:05.002Z,22.63
2022-08-11T15:47:38.824Z,22.52
2022-08-11T15:50:16.249Z,22.55
2022-08-11T15:52:49.041Z,22.57
2022-08-11T15:55:19.924Z,22.60
2022-08-11T15:58:09.184Z,22.63
2022-08-11T16:01:04.447Z,22.67
2022-08-11T16:04:07.753Z,22.71
2022-08-11T16:06:43.963Z,22.74
2022-08-11T16:09:21.763Z,22.78
2022-08-11T16:11:54.279Z,22.79
2022-08-11T16:14:43.262Z,22.78
2022-08-11T16:17:15.515Z,22.79
2022-08-11T16:19:47.271Z,22.83
2022-08-11T16:22:21.992Z,22.89
2022-08-11T16:27:01.514Z,22.95
2022-08-11T16:27:45.475Z,22.95
2022-08-11T16:30:16.110Z,22.91
2022-08-11T16:32:48.384Z,22.88
2022-08-11T16:35:37.352Z,22.90
2022-08-11T16:38:26.609Z,22.90
2022-08-11T16:40:57.952Z,22.92
2022-08-11T16:43:47.729Z,22.85
2022-08-11T16:46:35.069Z,22.61
2022-08-11T16:49:07.558Z,22.30
2022-08-11T16:51:37.955Z,22.03
2022-08-11T16:54:08.640Z,21.70
2022-08-11T16:56:42.078Z,21.70
2022-08-11T16:59:18.532Z,22.69
2022-08-11T17:01:53.524Z,23.45
2022-08-11T17:04:47.869Z,23.30
2022-08-11T17:07:41.944Z,22.34
2022-08-11T17:10:51.959Z,22.16
2022-08-11T17:13:29.313Z,22.95
2022-08-11T17:16:08.672Z,23.48
2022-08-11T17:18:44.209Z,23.86
2022-08-11T17:21:16.653Z,24.20
2022-08-11T17:23:50.348Z,24.25
2022-08-11T17:26:22.997Z,23.38
2022-08-11T17:28:56.399Z,22.43
2022-08-11T17:31:46.001Z,21.74
2022-08-11T17:34:34.447Z,21.18
2022-08-11T17:37:06.146Z,21.06
2022-08-11T17:39:37.075Z,22.07
2022-08-11T17:42:26.611Z,22.65
2022-08-11T17:45:15.370Z,22.04
2022-08-11T17:48:04.225Z,21.25
2022-08-11T17:50:35.545Z,21.11
2022-08-11T17:53:24.267Z,21.92
2022-08-11T17:56:13.333Z,22.61
2022-08-11T17:59:02.522Z,22.11
2022-08-11T18:01:35.685Z,21.23
2022-08-11T18:04:07.309Z,21.52
2022-08-11T18:06:38.745Z,22.36
2022-08-11T18:09:29.487Z,22.66
2022-08-11T18:12:18.714Z,22.08
2022-08-11T18:15:07.882Z,21.21
2022-08-11T18:17:55.987Z,20.93
2022-08-11T18:20:44.615Z,21.80
2022-08-11T18:23:45.996Z,22.42
2022-08-11T18:26:38.166Z,22.47
2022-08-11T18:29:26.826Z,21.51
2022-08-11T18:32:22.189Z,20.69
2022-08-11T18:35:13.969Z,20.98
2022-08-11T18:38:06.093Z,22.07
2022-08-11T18:40:54.639Z,22.44
2022-08-11T18:43:45.039Z,21.63
2022-08-11T18:46:35.069Z,20.79
2022-08-11T18:49:35.476Z,21.28
2022-08-11T18:52:36.801Z,22.35
2022-08-11T18:55:28.930Z,22.42
2022-08-11T18:58:19.547Z,21.42
2022-08-11T19:01:09.170Z,20.78
2022-08-11T19:04:10.495Z,21.57
2022-08-11T19:07:01.166Z,22.26
2022-08-11T19:09:50.729Z,22.37
2022-08-11T19:12:40.312Z,21.35
2022-08-11T19:15:30.123Z,20.45
2022-08-11T19:18:18.731Z,20.52
2022-08-11T19:21:06.951Z,21.59
2022-08-11T19:23:57.892Z,22.27
2022-08-11T19:26:46.868Z,21.58
2022-08-11T19:30:11.827Z,20.53
2022-08-11T19:32:48.816Z,20.24
2022-08-11T19:35:38.007Z,21.18
2022-08-11T19:38:28.105Z,21.92
2022-08-11T19:41:18.462Z,21.74
2022-08-11T19:44:27.005Z,20.62
2022-08-11T19:47:17.355Z,20.21
2022-08-11T19:50:07.692Z,21.23
2022-08-11T19:53:00.469Z,21.99
2022-08-11T19:55:49.189Z,21.29
2022-08-11T19:58:37.750Z,20.22
2022-08-11T20:01:25.959Z,19.87
2022-08-11T20:04:14.711Z,20.82
2022-08-11T20:07:02.886Z,21.57
2022-08-11T20:10:06.108Z,21.73
2022-08-11T20:12:56.508Z,20.69
2022-08-11T20:15:45.635Z,19.88
2022-08-11T20:18:35.072Z,20.43
2022-08-11T20:21:25.562Z,21.27
2022-08-11T20:24:19.591Z,21.86
2022-08-11T20:27:18.558Z,21.89
2022-08-11T20:30:13.376Z,20.70
2022-08-11T20:33:02.776Z,19.84
2022-08-11T20:35:51.708Z,19.67
2022-08-11T20:38:41.583Z,20.71
2022-08-11T20:41:30.141Z,21.45
2022-08-11T20:44:19.411Z,21.63
2022-08-11T20:47:13.127Z,20.64
2022-08-11T20:53:10.663Z,19.93
2022-08-11T20:55:59.001Z,20.88
2022-08-11T20:59:14.349Z,21.48
2022-08-11T21:01:56.285Z,21.97
2022-08-11T21:04:54.427Z,21.62
2022-08-11T21:07:55.610Z,20.43
2022-08-11T21:10:48.707Z,19.93
2022-08-11T21:13:42.068Z,20.79
2022-08-11T21:16:32.007Z,21.38
2022-08-11T21:19:59.514Z,21.31
2022-08-11T21:22:33.914Z,20.22
2022-08-11T21:25:24.058Z,19.76
2022-08-11T21:28:16.823Z,20.59
2022-08-11T21:31:06.091Z,21.29
2022-08-11T21:33:54.645Z,21.75
2022-08-11T21:36:43.602Z,22.06
2022-08-11T21:39:32.920Z,21.99
2022-08-11T21:42:22.647Z,20.95
2022-08-11T21:45:10.691Z,20.02
2022-08-11T21:48:01.454Z,19.75
2022-08-11T21:50:49.743Z,20.72
2022-08-11T21:53:38.900Z,21.43
2022-08-11T21:56:29.092Z,21.87
2022-08-11T21:59:18.262Z,21.71
2022-08-11T22:02:11.935Z,20.67
2022-08-11T22:05:01.072Z,20.12
2022-08-11T22:07:49.614Z,20.96
2022-08-11T22:10:41.797Z,21.60
2022-08-11T22:13:31.870Z,21.98
2022-08-11T22:16:20.827Z,22.24
2022-08-11T22:19:09.810Z,22.16
2022-08-11T22:22:03.816Z,21.05
2022-08-11T22:24:53.136Z,20.01
2022-08-11T22:27:42.704Z,19.75
2022-08-11T22:30:30.639Z,20.73
2022-08-11T22:33:24.370Z,21.42
2022-08-11T22:36:15.432Z,21.80
2022-08-11T22:39:05.104Z,22.04
2022-08-11T22:41:52.890Z,21.93
2022-08-11T22:44:41.601Z,20.87
2022-08-11T22:47:38.273Z,20.23
2022-08-11T22:50:29.447Z,21.00
2022-08-11T22:53:18.714Z,21.49
2022-08-11T22:56:07.779Z,21.74
2022-08-11T22:58:55.920Z,21.83
2022-08-11T23:01:55.339Z,21.84
2022-08-11T23:04:46.337Z,21.94
2022-08-11T23:07:49.697Z,21.90
2022-08-11T23:10:40.740Z,21.93
2022-08-11T23:13:29.388Z,21.67
2022-08-11T23:16:17.631Z,20.45
2022-08-11T23:19:07.458Z,19.88
2022-08-11T23:21:56.543Z,20.63
2022-08-11T23:24:45.638Z,21.14
2022-08-11T23:27:34.800Z,21.36
2022-08-11T23:30:23.767Z,21.50
2022-08-11T23:33:15.474Z,21.63
2022-08-11T23:36:05.744Z,21.76
2022-08-11T23:38:54.817Z,21.78
2022-08-11T23:41:43.510Z,21.84
2022-08-11T23:44:31.376Z,21.96
2022-08-11T23:47:20.062Z,22.00
2022-08-11T23:50:08.532Z,21.77
2022-08-11T23:52:57.083Z,20.56
2022-08-11T23:55:46.145Z,19.86
2022-08-11T23:58:35.251Z,20.56
